Aeroporto :
LOGIN :

Iscrizione | Disclaimer

   EN    FR    IT 

 










Sommario :    VFR   VFR Marginale   IFR   IFR Intensivo   IFR Molto Intensivo
Visibilità : 
Base nubi : 
>= 8 km
>= 3000ft
5 / 8 km
1000 / 3000 ft
1500m / 5 km
500 / 1000 ft
800 / 1500m
200 / 500 ft
< 800m
< 200 ft
Simboli :   Temporali  Nebbia  Neve Forte  Precipitazioni Forti  Vento > 20 kt
SIGMETs :   Varie  Temporali  Ghiacco  Turbolenza  Onda orograficha  Ceneri Vulcaniche






- Altitudine del aeroporto : 1106 ft


LFSO - Nancy / Ochey

METARs OBSOLETI :
  • 031530Z AUTO 25010KT 190V300 CAVOK 28/10 Q1018
  • 032330Z AUTO 05004KT 010V090 CAVOK 16/11 Q1021
  • 032300Z AUTO 01004KT CAVOK 16/11 Q1021
  • 032230Z AUTO 34004KT CAVOK 17/11 Q1021
  • 032200Z AUTO 34005KT CAVOK 17/11 Q1021
  • 032130Z AUTO 34006KT CAVOK 18/11 Q1020
  • 032100Z AUTO 33008KT CAVOK 19/11 Q1020

Previsioni scadute.



MetMap, La meteo Aeronautica in un colpo d'occhio ! - Copyright ORBIFLY Dicembre 2007 - Disclaimer

ORBIFLY MET'MAP TEAM :

Programmazione e sviluppo : Alexandra Zaïnal
Concezione : Baudouin d'Aumeries
Supporto tecnico e logistico : Manuel Goepfert
Aiuto : Marc-Olivier Méhu
Aiuto per la traduzione : Arnaldo La Scala




FONTI E CREDITI :

   NOAA